Date,TemperatureHighF,TemperatureAvgF,TemperatureLowF,DewpointHighF,DewpointAvgF,DewpointLowF,HumidityHigh,HumidityAvg,HumidityLow,PressureMaxIn,PressureMinIn,WindSpeedMaxMPH,WindSpeedAvgMPH,GustSpeedMaxMPH,PrecipitationSumIn
2013-2-1,67.6,49.9,35.6,50.1,36.8,29.1,84,63,35,30.15,30.03,11,2,11,0.00
2013-2-2,65.1,51.4,41.4,50.3,40.9,34.0,83,69,42,30.21,30.12,10,2,10,0.00
2013-2-3,61.3,51.9,44.6,48.7,44.3,41.0,91,76,50,30.18,30.03,13,5,14,0.00
2013-2-4,61.7,51.7,44.8,54.1,45.4,40.4,93,80,57,30.09,29.97,11,3,13,0.00
2013-2-5,59.4,49.9,45.0,46.3,43.5,40.0,90,79,60,30.06,29.94,21,7,22,0.00
2013-2-6,60.4,49.1,39.6,49.0,38.8,32.5,83,69,43,30.09,30.03,17,5,20,0.00
2013-2-7,56.3,47.5,40.8,48.2,38.0,28.9,90,71,35,30.09,29.91,17,4,17,0.00
2013-2-8,57.7,47.4,37.4,45.0,32.6,20.5,85,60,32,29.94,29.85,12,3,14,0.00
2013-2-9,61.3,49.5,39.6,32.2,26.3,19.2,59,41,29,30.00,29.88,10,2,10,0.00
2013-2-10,61.9,48.0,33.6,38.8,31.4,23.6,74,54,36,30.06,29.91,10,2,11,0.00
2013-2-11,66.7,49.4,36.9,35.0,28.4,21.8,62,46,25,30.15,29.97,10,1,10,0.00
2013-2-12,61.9,48.5,35.6,45.6,36.1,28.7,83,64,39,30.30,30.15,8,2,8,0.00
2013-2-13,65.1,51.4,36.9,48.2,37.7,29.0,81,61,36,30.27,30.12,8,2,11,0.00
2013-2-14,70.5,53.1,38.8,49.1,39.4,32.3,82,62,33,30.18,30.06,10,1,11,0.00
2013-2-15,70.7,53.9,39.0,48.0,37.9,32.1,80,58,32,30.21,30.12,9,1,10,0.00
2013-2-16,69.1,53.7,39.7,47.0,40.1,32.0,77,61,40,30.15,29.94,13,1,13,0.00
2013-2-17,66.6,54.7,46.8,47.5,40.9,31.5,88,62,36,29.97,29.85,11,4,14,0.00
2013-2-18,56.3,49.6,45.1,44.3,39.5,34.8,86,69,49,29.94,29.83,17,7,20,0.00
2013-2-19,51.6,45.4,39.2,44.4,36.0,27.3,87,70,47,29.85,29.62,18,6,18,0.08
2013-2-20,62.2,49.2,38.5,38.1,32.4,26.5,72,54,35,29.94,29.74,15,6,17,0.00
2013-2-21,66.9,51.1,38.7,36.9,32.0,27.6,72,51,25,30.06,29.94,13,4,16,0.00
2013-2-22,64.9,52.3,41.0,44.7,37.3,30.9,78,59,34,30.18,30.06,21,5,22,0.00
2013-2-23,66.6,53.5,46.0,44.4,32.0,19.3,87,50,23,30.18,30.06,15,6,17,0.00
2013-2-24,74.7,55.4,44.8,33.2,24.9,17.9,54,31,21,30.18,30.06,15,4,17,0.00
2013-2-25,74.5,53.6,44.4,45.0,38.2,28.8,85,59,27,30.18,30.06,13,3,17,0.00
2013-2-26,81.0,55.0,36.9,43.0,31.0,24.0,75,45,21,30.12,30.03,10,2,11,0.00
2013-2-27,78.3,54.4,37.2,43.0,34.7,26.9,73,50,25,30.24,30.09,12,2,15,0.00
2013-2-28,77.2,60.0,51.8,52.4,47.3,39.9,81,64,39,30.36,30.24,14,4,15,0.00